createdAt,value
2023-05-05T00:01:03.540Z,12.95
2023-05-05T00:03:31.235Z,12.94
2023-05-05T00:05:58.947Z,12.90
2023-05-05T00:08:26.670Z,12.82
2023-05-05T00:10:54.718Z,12.73
2023-05-05T00:13:23.084Z,12.69
2023-05-05T00:15:52.571Z,12.66
2023-05-05T00:18:21.436Z,12.61
2023-05-05T00:20:49.257Z,12.57
2023-05-05T00:23:17.444Z,12.53
2023-05-05T00:25:44.808Z,12.48
2023-05-05T00:28:14.323Z,12.48
2023-05-05T00:30:42.165Z,12.40
2023-05-05T00:33:09.765Z,12.30
2023-05-05T00:35:37.170Z,12.20
2023-05-05T00:38:05.174Z,12.19
2023-05-05T00:40:32.513Z,12.20
2023-05-05T00:43:00.147Z,12.20
2023-05-05T00:45:27.774Z,12.13
2023-05-05T00:47:59.528Z,12.13
2023-05-05T00:50:30.452Z,12.17
2023-05-05T00:53:04.514Z,12.23
2023-05-05T00:55:34.024Z,12.29
2023-05-05T00:58:04.140Z,12.17
2023-05-05T01:00:31.711Z,12.08
2023-05-05T01:03:00.025Z,12.02
2023-05-05T01:05:37.348Z,11.89
2023-05-05T01:08:19.527Z,11.86
2023-05-05T01:11:03.267Z,11.79
2023-05-05T01:13:53.449Z,11.77
2023-05-05T01:16:27.711Z,11.70
2023-05-05T01:19:17.253Z,11.83
2023-05-05T01:21:53.640Z,11.77
2023-05-05T01:24:58.246Z,11.66
2023-05-05T01:27:49.620Z,11.59
2023-05-05T01:30:50.103Z,11.62
2023-05-05T01:33:27.428Z,11.60
2023-05-05T01:36:06.725Z,11.57
2023-05-05T01:38:42.793Z,11.57
2023-05-05T01:41:10.190Z,11.57
2023-05-05T01:43:39.852Z,11.57
2023-05-05T01:46:09.044Z,11.59
2023-05-05T01:48:38.941Z,11.63
2023-05-05T01:51:10.566Z,11.68
2023-05-05T01:53:39.871Z,11.73
2023-05-05T01:56:09.813Z,11.68
2023-05-05T01:58:38.827Z,11.66
2023-05-05T02:01:06.901Z,11.63
2023-05-05T02:03:37.288Z,11.51
2023-05-05T02:06:08.492Z,11.41
2023-05-05T02:08:39.537Z,11.41
2023-05-05T02:11:11.648Z,11.37
2023-05-05T02:13:42.864Z,11.46
2023-05-05T02:16:11.722Z,11.48
2023-05-05T02:18:39.739Z,11.49
2023-05-05T02:21:08.128Z,11.53
2023-05-05T02:23:36.441Z,11.39
2023-05-05T02:26:08.376Z,11.32
2023-05-05T02:28:51.725Z,11.24
2023-05-05T02:31:24.101Z,11.19
2023-05-05T02:33:53.431Z,11.11
2023-05-05T02:36:27.919Z,11.23
2023-05-05T02:39:01.313Z,11.12
2023-05-05T02:41:33.091Z,11.07
2023-05-05T02:44:04.416Z,11.12
2023-05-05T02:46:32.665Z,11.08
2023-05-05T02:49:00.123Z,11.09
2023-05-05T02:51:27.767Z,11.10
2023-05-05T02:53:55.574Z,11.05
2023-05-05T02:56:48.979Z,10.98
2023-05-05T02:59:47.470Z,10.99
2023-05-05T03:02:39.421Z,10.97
2023-05-05T03:05:41.345Z,10.96
2023-05-05T03:08:18.555Z,10.96
2023-05-05T03:11:00.452Z,10.89
2023-05-05T03:13:30.183Z,10.89
2023-05-05T03:16:00.169Z,10.90
2023-05-05T03:18:31.452Z,10.91
2023-05-05T03:21:07.995Z,10.88
2023-05-05T03:23:36.692Z,10.87
2023-05-05T03:26:04.026Z,10.85
2023-05-05T03:28:31.752Z,10.86
2023-05-05T03:30:59.171Z,10.88
2023-05-05T03:33:26.678Z,10.88
2023-05-05T03:35:53.924Z,10.91
2023-05-05T03:38:21.447Z,10.94
2023-05-05T03:40:48.744Z,10.97
2023-05-05T03:43:16.389Z,10.99
2023-05-05T03:45:43.675Z,11.03
2023-05-05T03:48:11.258Z,11.11
2023-05-05T03:50:38.489Z,11.10
2023-05-05T03:53:06.030Z,11.06
2023-05-05T03:55:33.357Z,11.08
2023-05-05T03:58:00.994Z,11.14
2023-05-05T04:00:28.276Z,11.20
2023-05-05T04:02:56.346Z,11.26
2023-05-05T04:05:23.776Z,11.32
2023-05-05T04:07:51.350Z,11.34
2023-05-05T04:10:18.714Z,11.41
2023-05-05T04:12:46.544Z,11.47
2023-05-05T04:15:13.874Z,11.53
2023-05-05T04:17:41.410Z,11.54
2023-05-05T04:20:09.811Z,11.60
2023-05-05T04:22:37.720Z,11.59
2023-05-05T04:25:05.589Z,11.61
2023-05-05T04:27:33.231Z,11.69
2023-05-05T04:30:00.494Z,11.69
2023-05-05T04:32:28.423Z,11.68
2023-05-05T04:34:55.895Z,11.66
2023-05-05T04:37:23.587Z,11.61
2023-05-05T04:39:50.954Z,11.73
2023-05-05T04:42:18.579Z,11.82
2023-05-05T04:44:46.177Z,11.91
2023-05-05T04:47:14.742Z,11.96
2023-05-05T04:49:42.127Z,12.06
2023-05-05T04:52:11.921Z,12.13
2023-05-05T04:54:39.240Z,12.23
2023-05-05T04:57:07.416Z,12.29
2023-05-05T04:59:35.328Z,12.39
2023-05-05T05:02:03.298Z,12.42
2023-05-05T05:04:31.176Z,12.53
2023-05-05T05:06:59.360Z,12.59
2023-05-05T05:09:26.785Z,12.63
2023-05-05T05:11:54.350Z,12.59
2023-05-05T05:14:21.964Z,12.65
2023-05-05T05:16:52.377Z,12.72
2023-05-05T05:19:19.898Z,12.79
2023-05-05T05:21:47.436Z,12.88
2023-05-05T05:24:14.670Z,12.92
2023-05-05T05:26:42.407Z,12.93
2023-05-05T05:29:09.658Z,13.02
2023-05-05T05:31:37.273Z,13.07
2023-05-05T05:34:04.516Z,13.13
2023-05-05T05:36:32.214Z,13.21
2023-05-05T05:38:59.440Z,13.29
2023-05-05T05:41:26.938Z,13.23
2023-05-05T05:43:54.214Z,13.24
2023-05-05T05:46:21.885Z,13.28
2023-05-05T05:48:49.203Z,13.27
2023-05-05T05:51:16.784Z,13.26
2023-05-05T05:53:44.034Z,13.26
2023-05-05T05:56:11.524Z,13.39
2023-05-05T05:58:39.195Z,13.40
2023-05-05T06:01:06.863Z,13.48
2023-05-05T06:03:34.626Z,13.53
2023-05-05T06:06:02.388Z,13.62
2023-05-05T06:08:29.648Z,13.73
2023-05-05T06:10:57.190Z,13.97
2023-05-05T06:13:25.331Z,14.12
2023-05-05T06:15:52.902Z,14.26
2023-05-05T06:18:20.289Z,14.42
2023-05-05T06:20:52.497Z,14.59
2023-05-05T06:23:19.900Z,14.64
2023-05-05T06:25:47.713Z,14.88
2023-05-05T06:28:14.990Z,14.95
2023-05-05T06:30:42.536Z,14.93
2023-05-05T06:33:09.775Z,15.03
2023-05-05T06:35:37.379Z,15.15
2023-05-05T06:38:04.597Z,15.18
2023-05-05T06:40:32.142Z,15.32
2023-05-05T06:42:59.344Z,15.44
2023-05-05T06:45:27.033Z,15.56
2023-05-05T06:47:54.312Z,15.87
2023-05-05T06:50:22.124Z,16.05
2023-05-05T06:52:49.345Z,16.24
2023-05-05T06:55:17.093Z,16.23
2023-05-05T06:57:44.322Z,16.27
2023-05-05T07:00:13.976Z,16.27
2023-05-05T07:02:41.937Z,16.52
2023-05-05T07:05:10.653Z,16.67
2023-05-05T07:07:38.993Z,16.94
2023-05-05T07:10:07.726Z,17.20
2023-05-05T07:12:36.082Z,17.27
2023-05-05T07:15:15.401Z,17.52
2023-05-05T07:17:51.164Z,17.67
2023-05-05T07:20:19.074Z,18.01
2023-05-05T07:22:46.349Z,18.06
2023-05-05T07:25:13.825Z,18.30
2023-05-05T07:27:41.304Z,18.59
2023-05-05T07:30:13.211Z,18.79
2023-05-05T07:32:42.748Z,18.62
2023-05-05T07:35:10.957Z,18.74
2023-05-05T07:37:38.261Z,18.94
2023-05-05T07:40:07.146Z,19.07
2023-05-05T07:42:34.532Z,19.26
2023-05-05T07:45:02.435Z,19.44
2023-05-05T07:47:29.797Z,19.31
2023-05-05T07:49:58.008Z,19.22
2023-05-05T07:52:43.729Z,19.40
2023-05-05T07:55:12.502Z,19.64
2023-05-05T07:57:39.796Z,19.49
2023-05-05T08:00:09.572Z,19.51
2023-05-05T08:02:37.265Z,19.53
2023-05-05T08:05:05.335Z,19.80
2023-05-05T08:07:32.742Z,19.99
2023-05-05T08:10:00.270Z,20.37
2023-05-05T08:12:27.536Z,20.39
2023-05-05T08:14:55.059Z,20.44
2023-05-05T08:17:22.386Z,20.69
2023-05-05T08:19:53.042Z,20.45
2023-05-05T08:22:22.204Z,20.69
2023-05-05T08:24:49.723Z,20.84
2023-05-05T08:27:17.050Z,20.74
2023-05-05T08:29:44.601Z,21.04
2023-05-05T08:32:11.851Z,21.11
2023-05-05T08:34:39.302Z,21.18
2023-05-05T08:37:06.568Z,21.17
2023-05-05T08:39:34.058Z,21.41
2023-05-05T08:42:02.488Z,21.50
2023-05-05T08:44:30.034Z,21.87
2023-05-05T08:47:00.631Z,22.04
2023-05-05T08:49:43.923Z,22.13
2023-05-05T08:52:14.601Z,21.98
2023-05-05T08:54:54.842Z,22.09
2023-05-05T08:57:34.924Z,22.17
2023-05-05T09:00:04.345Z,22.43
2023-05-05T09:02:34.483Z,22.83
2023-05-05T09:05:05.460Z,22.87
2023-05-05T09:07:34.860Z,22.68
2023-05-05T09:10:05.849Z,22.89
2023-05-05T09:12:33.324Z,23.11
2023-05-05T09:15:03.687Z,23.42
2023-05-05T09:17:31.778Z,23.38
2023-05-05T09:20:14.206Z,25.25
2023-05-05T09:22:44.679Z,30.95
2023-05-05T09:25:16.126Z,36.01
2023-05-05T09:27:49.426Z,42.65
2023-05-05T09:30:29.761Z,44.78
2023-05-05T09:32:57.033Z,47.07
2023-05-05T09:35:24.576Z,48.02
2023-05-05T09:37:51.842Z,51.83
2023-05-05T09:40:22.346Z,52.98
2023-05-05T09:43:01.891Z,50.99
2023-05-05T09:45:29.425Z,52.17
2023-05-05T09:48:00.195Z,53.61
2023-05-05T09:50:31.155Z,45.59
2023-05-05T09:53:02.140Z,55.25
2023-05-05T09:55:33.599Z,58.75
2023-05-05T09:58:31.201Z,61.57
2023-05-05T10:01:01.394Z,59.66
2023-05-05T10:03:28.626Z,61.34
2023-05-05T10:05:59.110Z,62.30
2023-05-05T10:08:34.351Z,63.76
2023-05-05T10:11:06.993Z,64.60
2023-05-05T10:13:43.080Z,63.77
2023-05-05T10:16:13.297Z,66.23
2023-05-05T10:18:46.704Z,64.70
2023-05-05T10:21:21.786Z,65.52
2023-05-05T10:24:02.136Z,66.15
2023-05-05T10:26:40.898Z,65.26
2023-05-05T10:29:49.626Z,66.33
2023-05-05T10:32:56.830Z,63.77
2023-05-05T10:35:27.739Z,63.55
2023-05-05T10:37:57.826Z,63.60
2023-05-05T10:40:25.888Z,63.53
2023-05-05T10:42:55.708Z,60.87
2023-05-05T10:45:22.975Z,59.76
2023-05-05T10:47:53.195Z,60.64
2023-05-05T10:50:59.058Z,58.23
2023-05-05T10:53:36.794Z,51.46
2023-05-05T10:56:26.866Z,47.39
2023-05-05T10:59:00.055Z,44.54
2023-05-05T11:01:32.614Z,41.55
2023-05-05T11:04:23.869Z,39.72
2023-05-05T11:07:13.454Z,37.71
2023-05-05T11:10:03.926Z,36.25
2023-05-05T11:12:34.081Z,33.49
2023-05-05T11:15:31.766Z,31.97
2023-05-05T11:18:05.657Z,31.78
2023-05-05T11:20:37.708Z,31.00
2023-05-05T11:23:05.142Z,30.20
2023-05-05T11:25:42.233Z,29.92
2023-05-05T11:28:18.714Z,29.73
2023-05-05T11:30:55.443Z,29.22
2023-05-05T11:33:38.370Z,28.98
2023-05-05T11:36:07.464Z,28.96
2023-05-05T11:39:09.776Z,28.72
2023-05-05T11:42:31.808Z,28.16
2023-05-05T11:44:59.550Z,28.30
2023-05-05T11:47:29.295Z,28.30
2023-05-05T11:49:57.062Z,28.17
2023-05-05T11:52:26.481Z,28.22
2023-05-05T11:54:53.943Z,28.30
2023-05-05T11:57:29.185Z,28.16
2023-05-05T12:00:04.568Z,28.18
2023-05-05T12:02:32.414Z,27.95
2023-05-05T12:05:01.752Z,27.89
2023-05-05T12:07:33.271Z,27.52
2023-05-05T12:10:01.635Z,27.22
2023-05-05T12:12:40.969Z,25.93
2023-05-05T12:15:09.738Z,25.71
2023-05-05T12:17:40.888Z,25.94
2023-05-05T12:20:10.249Z,26.35
2023-05-05T12:22:38.893Z,26.21
2023-05-05T12:25:09.072Z,25.92
2023-05-05T12:27:36.775Z,25.61
2023-05-05T12:30:16.108Z,25.46
2023-05-05T12:32:44.614Z,25.47
2023-05-05T12:35:13.769Z,25.52
2023-05-05T12:37:43.076Z,25.60
2023-05-05T12:40:45.578Z,25.92
2023-05-05T12:43:35.369Z,25.96
2023-05-05T12:46:14.017Z,26.16
2023-05-05T12:48:46.403Z,26.25
2023-05-05T12:51:25.691Z,26.25
2023-05-05T12:54:11.476Z,26.28
2023-05-05T12:56:47.777Z,26.26
2023-05-05T12:59:24.505Z,26.36
2023-05-05T13:01:54.088Z,26.44
2023-05-05T13:04:26.303Z,26.35
2023-05-05T13:07:13.888Z,26.20
2023-05-05T13:09:42.495Z,26.03
2023-05-05T13:12:12.971Z,26.10
2023-05-05T13:14:41.966Z,26.29
2023-05-05T13:17:11.040Z,26.19
2023-05-05T13:19:42.814Z,25.78
2023-05-05T13:22:10.504Z,25.73
2023-05-05T13:24:56.575Z,25.83
2023-05-05T13:27:23.933Z,25.99
2023-05-05T13:29:51.563Z,25.92
2023-05-05T13:32:18.959Z,25.93
2023-05-05T13:34:46.698Z,26.06
2023-05-05T13:37:14.024Z,26.22
2023-05-05T13:39:41.684Z,26.06
2023-05-05T13:42:13.920Z,25.88
2023-05-05T13:44:41.552Z,25.91
2023-05-05T13:47:08.973Z,25.82
2023-05-05T13:49:36.633Z,25.79
2023-05-05T13:52:04.025Z,25.74
2023-05-05T13:54:37.651Z,25.91
2023-05-05T13:57:05.032Z,25.95
2023-05-05T13:59:32.681Z,25.96
2023-05-05T14:02:01.099Z,26.01
2023-05-05T14:04:28.699Z,26.06
2023-05-05T14:06:58.300Z,25.87
2023-05-05T14:09:25.846Z,25.62
2023-05-05T14:11:53.624Z,25.52
2023-05-05T14:14:21.115Z,25.58
2023-05-05T14:16:50.256Z,25.72
2023-05-05T14:19:18.084Z,25.69
2023-05-05T14:21:45.302Z,25.31
2023-05-05T14:24:12.821Z,25.29
2023-05-05T14:26:40.264Z,25.14
2023-05-05T14:29:07.908Z,25.38
2023-05-05T14:31:36.308Z,25.24
2023-05-05T14:34:04.666Z,24.97
2023-05-05T14:36:31.935Z,24.75
2023-05-05T14:38:59.459Z,24.78
2023-05-05T14:41:26.847Z,24.84
2023-05-05T14:43:54.422Z,24.96
2023-05-05T14:46:21.788Z,24.94
2023-05-05T14:48:49.416Z,24.92
2023-05-05T14:51:16.908Z,25.06
2023-05-05T14:53:44.553Z,25.11
2023-05-05T14:56:12.008Z,25.01
2023-05-05T14:58:39.776Z,24.97
2023-05-05T15:01:07.396Z,24.50
2023-05-05T15:03:35.194Z,24.40
2023-05-05T15:06:02.573Z,24.36
2023-05-05T15:08:30.157Z,24.45
2023-05-05T15:10:57.408Z,24.26
2023-05-05T15:13:25.094Z,24.37
2023-05-05T15:15:52.568Z,24.38
2023-05-05T15:18:20.191Z,24.52
2023-05-05T15:20:47.496Z,24.61
2023-05-05T15:23:15.746Z,24.70
2023-05-05T15:25:43.297Z,24.41
2023-05-05T15:28:11.048Z,24.25
2023-05-05T15:30:38.281Z,24.35
2023-05-05T15:33:06.017Z,24.20
2023-05-05T15:35:33.486Z,24.23
2023-05-05T15:38:01.029Z,24.17
2023-05-05T15:40:28.605Z,24.19
2023-05-05T15:42:56.338Z,24.37
2023-05-05T15:45:23.939Z,24.26
2023-05-05T15:47:52.930Z,24.29
2023-05-05T15:50:20.603Z,24.20
2023-05-05T15:52:49.971Z,24.13
2023-05-05T15:55:17.696Z,23.99
2023-05-05T15:57:45.257Z,23.82
2023-05-05T16:00:13.678Z,23.62
2023-05-05T16:02:41.330Z,23.55
2023-05-05T16:05:09.733Z,23.21
2023-05-05T16:07:37.916Z,23.03
2023-05-05T16:10:06.056Z,22.97
2023-05-05T16:12:33.717Z,22.80
2023-05-05T16:15:01.172Z,22.79
2023-05-05T16:17:28.812Z,22.79
2023-05-05T16:19:56.013Z,22.53
2023-05-05T16:22:23.889Z,22.65
2023-05-05T16:24:51.196Z,22.62
2023-05-05T16:27:18.766Z,22.56
2023-05-05T16:29:46.056Z,22.67
2023-05-05T16:32:13.638Z,22.72
2023-05-05T16:34:41.713Z,22.87
2023-05-05T16:37:09.238Z,22.89
2023-05-05T16:39:40.323Z,22.88
2023-05-05T16:42:08.295Z,22.69
2023-05-05T16:44:35.668Z,22.72
2023-05-05T16:47:03.254Z,22.59
2023-05-05T16:49:30.463Z,22.40
2023-05-05T16:51:58.383Z,22.27
2023-05-05T16:54:25.657Z,22.06
2023-05-05T16:56:53.858Z,21.87
2023-05-05T16:59:21.212Z,21.84
2023-05-05T17:01:50.284Z,21.82
2023-05-05T17:04:17.602Z,21.83
2023-05-05T17:06:45.235Z,21.73
2023-05-05T17:09:12.670Z,21.46
2023-05-05T17:11:40.234Z,21.51
2023-05-05T17:14:07.537Z,21.41
2023-05-05T17:16:35.157Z,21.38
2023-05-05T17:19:02.408Z,21.41
2023-05-05T17:21:29.988Z,21.30
2023-05-05T17:23:57.323Z,21.40
2023-05-05T17:26:25.130Z,21.36
2023-05-05T17:28:52.399Z,21.19
2023-05-05T17:31:19.929Z,20.95
2023-05-05T17:33:47.219Z,20.83
2023-05-05T17:36:14.749Z,20.76
2023-05-05T17:38:42.066Z,20.61
2023-05-05T17:41:09.629Z,20.46
2023-05-05T17:43:36.824Z,20.33
2023-05-05T17:46:04.536Z,20.19
2023-05-05T17:48:31.778Z,20.16
2023-05-05T17:50:59.381Z,20.01
2023-05-05T17:53:26.656Z,19.82
2023-05-05T17:55:54.703Z,19.72
2023-05-05T17:58:21.952Z,19.62
2023-05-05T18:00:49.557Z,19.54
2023-05-05T18:03:18.352Z,19.41
2023-05-05T18:05:46.258Z,19.37
2023-05-05T18:08:13.551Z,19.31
2023-05-05T18:10:41.163Z,19.24
2023-05-05T18:13:08.466Z,19.19
2023-05-05T18:15:36.054Z,19.16
2023-05-05T18:18:03.538Z,19.05
2023-05-05T18:20:31.107Z,18.99
2023-05-05T18:22:58.482Z,18.92
2023-05-05T18:25:26.258Z,18.93
2023-05-05T18:27:53.550Z,18.83
2023-05-05T18:30:21.172Z,18.76
2023-05-05T18:32:49.006Z,18.70
2023-05-05T18:35:16.874Z,18.74
2023-05-05T18:37:44.150Z,18.69
2023-05-05T18:40:12.307Z,18.64
2023-05-05T18:42:39.738Z,18.61
2023-05-05T18:45:09.218Z,18.53
2023-05-05T18:47:39.169Z,18.38
2023-05-05T18:50:08.507Z,18.42
2023-05-05T18:52:36.050Z,18.46
2023-05-05T18:55:04.130Z,18.37
2023-05-05T18:57:31.472Z,18.34
2023-05-05T18:59:59.032Z,18.25
2023-05-05T19:02:26.239Z,18.23
2023-05-05T19:04:53.972Z,18.12
2023-05-05T19:07:31.615Z,18.02
2023-05-05T19:10:04.335Z,18.02
2023-05-05T19:12:31.801Z,17.87
2023-05-05T19:14:59.430Z,17.87
2023-05-05T19:17:26.763Z,17.91
2023-05-05T19:19:54.372Z,17.89
2023-05-05T19:22:23.569Z,17.84
2023-05-05T19:24:51.107Z,17.78
2023-05-05T19:27:18.653Z,17.79
2023-05-05T19:29:49.231Z,17.73
2023-05-05T19:32:16.963Z,17.68
2023-05-05T19:34:44.723Z,17.62
2023-05-05T19:37:12.137Z,17.46
2023-05-05T19:39:39.750Z,17.52
2023-05-05T19:42:07.849Z,17.57
2023-05-05T19:44:35.339Z,17.56
2023-05-05T19:47:02.616Z,17.56
2023-05-05T19:49:30.144Z,17.54
2023-05-05T19:51:59.088Z,17.51
2023-05-05T19:54:28.933Z,17.48
2023-05-05T19:56:57.423Z,17.39
2023-05-05T19:59:25.072Z,17.34
2023-05-05T20:01:52.345Z,17.31
2023-05-05T20:04:19.976Z,17.21
2023-05-05T20:06:47.257Z,17.22
2023-05-05T20:09:15.335Z,17.12
2023-05-05T20:11:42.612Z,17.02
2023-05-05T20:14:10.372Z,16.99
2023-05-05T20:16:37.670Z,16.90
2023-05-05T20:19:05.465Z,16.89
2023-05-05T20:21:34.335Z,16.85
2023-05-05T20:24:01.899Z,16.87
2023-05-05T20:26:29.134Z,16.77
2023-05-05T20:28:56.698Z,16.77
2023-05-05T20:31:24.064Z,16.66
2023-05-05T20:33:51.687Z,16.65
2023-05-05T20:36:19.205Z,16.58
2023-05-05T20:38:46.809Z,16.55
2023-05-05T20:41:14.011Z,16.47
2023-05-05T20:43:41.600Z,16.44
2023-05-05T20:46:13.075Z,16.36
2023-05-05T20:48:42.921Z,16.28
2023-05-05T20:51:10.728Z,16.25
2023-05-05T20:53:38.287Z,16.25
2023-05-05T20:56:08.693Z,16.21
2023-05-05T20:58:36.755Z,16.21
2023-05-05T21:01:04.040Z,16.15
2023-05-05T21:03:31.755Z,16.16
2023-05-05T21:05:59.007Z,16.09
2023-05-05T21:08:26.918Z,15.98
2023-05-05T21:10:54.140Z,15.92
2023-05-05T21:13:21.747Z,15.94
2023-05-05T21:15:50.447Z,15.92
2023-05-05T21:18:18.006Z,15.92
2023-05-05T21:20:45.213Z,15.83
2023-05-05T21:23:12.775Z,15.82
2023-05-05T21:25:40.246Z,15.70
2023-05-05T21:28:07.789Z,15.72
2023-05-05T21:30:35.152Z,15.69
2023-05-05T21:33:02.701Z,15.68
2023-05-05T21:35:30.053Z,15.57
2023-05-05T21:37:57.730Z,15.58
2023-05-05T21:40:25.013Z,15.53
2023-05-05T21:42:52.544Z,15.55
2023-05-05T21:45:20.455Z,15.54
2023-05-05T21:47:48.060Z,15.48
2023-05-05T21:50:15.368Z,15.41
2023-05-05T21:52:42.840Z,15.38
2023-05-05T21:55:11.113Z,15.32
2023-05-05T21:57:38.684Z,15.22
2023-05-05T22:00:07.986Z,15.14
2023-05-05T22:02:35.793Z,15.03
2023-05-05T22:05:03.080Z,14.92
2023-05-05T22:07:31.723Z,14.87
2023-05-05T22:10:00.269Z,14.80
2023-05-05T22:12:27.870Z,14.79
2023-05-05T22:14:55.213Z,14.74
2023-05-05T22:17:22.742Z,14.57
2023-05-05T22:19:50.671Z,14.56
2023-05-05T22:22:18.157Z,14.37
2023-05-05T22:24:45.498Z,14.26
2023-05-05T22:27:13.005Z,14.19
2023-05-05T22:29:40.416Z,14.14
2023-05-05T22:32:07.883Z,14.03
2023-05-05T22:34:35.806Z,13.98
2023-05-05T22:37:03.348Z,13.97
2023-05-05T22:39:30.677Z,13.99
2023-05-05T22:41:58.234Z,14.01
2023-05-05T22:44:25.483Z,13.90
2023-05-05T22:46:53.039Z,13.88
2023-05-05T22:49:20.423Z,13.82
2023-05-05T22:51:48.277Z,13.70
2023-05-05T22:54:15.667Z,13.77
2023-05-05T22:56:43.276Z,13.75
2023-05-05T22:59:10.645Z,13.76
2023-05-05T23:01:38.871Z,13.71
2023-05-05T23:04:06.574Z,13.58
2023-05-05T23:06:34.075Z,13.53
2023-05-05T23:09:01.286Z,13.43
2023-05-05T23:11:28.865Z,13.33
2023-05-05T23:13:56.067Z,13.37
2023-05-05T23:16:23.651Z,13.31
2023-05-05T23:18:50.879Z,13.31
2023-05-05T23:21:18.331Z,13.33
2023-05-05T23:23:45.740Z,13.27
2023-05-05T23:26:14.119Z,13.25
2023-05-05T23:28:41.676Z,13.20
2023-05-05T23:31:09.813Z,13.22
2023-05-05T23:33:37.112Z,13.20
2023-05-05T23:36:05.262Z,13.25
2023-05-05T23:38:32.464Z,13.21
2023-05-05T23:40:59.989Z,13.29
2023-05-05T23:43:27.222Z,13.27
2023-05-05T23:45:54.776Z,13.19
2023-05-05T23:48:22.104Z,13.04
2023-05-05T23:50:49.589Z,12.94
2023-05-05T23:53:16.771Z,12.85
2023-05-05T23:55:44.262Z,12.82
2023-05-05T23:58:11.552Z,12.78
